sensor_id;sensor_type;location;lat;lon;timestamp;temperature;humidity
7030;DHT22;3556;53.500;10.176;2023-03-05T00:00:45;2.90;99.90
7030;DHT22;3556;53.500;10.176;2023-03-05T00:03:11;2.90;99.90
7030;DHT22;3556;53.500;10.176;2023-03-05T00:05:36;2.80;99.90
7030;DHT22;3556;53.500;10.176;2023-03-05T00:08:02;2.80;99.90
7030;DHT22;3556;53.500;10.176;2023-03-05T00:10:28;2.80;99.90
7030;DHT22;3556;53.500;10.176;2023-03-05T00:12:53;2.80;99.90
7030;DHT22;3556;53.500;10.176;2023-03-05T00:15:19;2.80;99.90
7030;DHT22;3556;53.500;10.176;2023-03-05T00:17:44;2.90;99.90
7030;DHT22;3556;53.500;10.176;2023-03-05T00:20:10;2.90;99.90
7030;DHT22;3556;53.500;10.176;2023-03-05T00:22:36;3.00;99.90
7030;DHT22;3556;53.500;10.176;2023-03-05T00:25:03;3.00;99.90
7030;DHT22;3556;53.500;10.176;2023-03-05T00:27:29;2.90;99.90
7030;DHT22;3556;53.500;10.176;2023-03-05T00:29:55;2.90;99.90
7030;DHT22;3556;53.500;10.176;2023-03-05T00:32:20;2.90;99.90
7030;DHT22;3556;53.500;10.176;2023-03-05T00:34:46;3.00;99.90
7030;DHT22;3556;53.500;10.176;2023-03-05T00:37:14;3.00;99.90
7030;DHT22;3556;53.500;10.176;2023-03-05T00:39:40;3.00;99.90
7030;DHT22;3556;53.500;10.176;2023-03-05T00:42:06;3.00;99.90
7030;DHT22;3556;53.500;10.176;2023-03-05T00:44:32;3.00;99.90
7030;DHT22;3556;53.500;10.176;2023-03-05T00:46:57;3.10;99.90
7030;DHT22;3556;53.500;10.176;2023-03-05T00:49:23;3.00;99.90
7030;DHT22;3556;53.500;10.176;2023-03-05T00:51:48;3.00;99.90
7030;DHT22;3556;53.500;10.176;2023-03-05T00:54:14;3.00;99.90
7030;DHT22;3556;53.500;10.176;2023-03-05T00:56:40;3.00;99.90
7030;DHT22;3556;53.500;10.176;2023-03-05T00:59:06;3.00;99.90
7030;DHT22;3556;53.500;10.176;2023-03-05T01:01:31;2.90;99.90
7030;DHT22;3556;53.500;10.176;2023-03-05T01:03:57;2.80;99.90
7030;DHT22;3556;53.500;10.176;2023-03-05T01:06:24;2.70;99.90
7030;DHT22;3556;53.500;10.176;2023-03-05T01:08:50;2.70;99.90
7030;DHT22;3556;53.500;10.176;2023-03-05T01:11:16;2.60;99.90
7030;DHT22;3556;53.500;10.176;2023-03-05T01:13:41;2.60;99.90
7030;DHT22;3556;53.500;10.176;2023-03-05T01:16:07;2.50;99.90
7030;DHT22;3556;53.500;10.176;2023-03-05T01:18:33;2.50;99.90
7030;DHT22;3556;53.500;10.176;2023-03-05T01:20:58;2.50;99.90
7030;DHT22;3556;53.500;10.176;2023-03-05T01:23:24;2.40;99.90
7030;DHT22;3556;53.500;10.176;2023-03-05T01:25:55;2.40;99.90
7030;DHT22;3556;53.500;10.176;2023-03-05T01:28:21;2.40;99.90
7030;DHT22;3556;53.500;10.176;2023-03-05T01:30:46;2.40;99.90
7030;DHT22;3556;53.500;10.176;2023-03-05T01:33:12;2.40;99.90
7030;DHT22;3556;53.500;10.176;2023-03-05T01:35:38;2.30;99.90
7030;DHT22;3556;53.500;10.176;2023-03-05T01:38:03;2.30;99.90
7030;DHT22;3556;53.500;10.176;2023-03-05T01:40:30;2.30;99.90
7030;DHT22;3556;53.500;10.176;2023-03-05T01:42:59;2.30;99.90
7030;DHT22;3556;53.500;10.176;2023-03-05T01:45:25;2.20;99.90
7030;DHT22;3556;53.500;10.176;2023-03-05T01:47:51;2.20;99.90
7030;DHT22;3556;53.500;10.176;2023-03-05T01:50:20;2.20;99.90
7030;DHT22;3556;53.500;10.176;2023-03-05T01:52:57;2.20;99.90
7030;DHT22;3556;53.500;10.176;2023-03-05T01:55:25;2.20;99.90
7030;DHT22;3556;53.500;10.176;2023-03-05T01:57:55;2.20;99.90
7030;DHT22;3556;53.500;10.176;2023-03-05T02:00:30;2.20;99.90
7030;DHT22;3556;53.500;10.176;2023-03-05T02:02:57;2.20;99.90
7030;DHT22;3556;53.500;10.176;2023-03-05T02:05:31;2.20;99.90
7030;DHT22;3556;53.500;10.176;2023-03-05T02:07:59;2.20;99.90
7030;DHT22;3556;53.500;10.176;2023-03-05T02:10:28;2.20;99.90
7030;DHT22;3556;53.500;10.176;2023-03-05T02:12:56;2.20;99.90
7030;DHT22;3556;53.500;10.176;2023-03-05T02:15:23;2.20;99.90
7030;DHT22;3556;53.500;10.176;2023-03-05T02:17:48;2.20;99.90
7030;DHT22;3556;53.500;10.176;2023-03-05T02:20:24;2.30;99.90
7030;DHT22;3556;53.500;10.176;2023-03-05T02:22:50;2.30;99.90
7030;DHT22;3556;53.500;10.176;2023-03-05T02:25:21;2.20;99.90
7030;DHT22;3556;53.500;10.176;2023-03-05T02:28:00;2.30;99.90
7030;DHT22;3556;53.500;10.176;2023-03-05T02:30:27;2.30;99.90
7030;DHT22;3556;53.500;10.176;2023-03-05T02:32:53;2.20;99.90
7030;DHT22;3556;53.500;10.176;2023-03-05T02:35:19;2.20;99.90
7030;DHT22;3556;53.500;10.176;2023-03-05T02:37:45;2.20;99.90
7030;DHT22;3556;53.500;10.176;2023-03-05T02:40:12;2.20;99.90
7030;DHT22;3556;53.500;10.176;2023-03-05T02:42:38;2.10;99.90
7030;DHT22;3556;53.500;10.176;2023-03-05T02:45:04;2.10;99.90
7030;DHT22;3556;53.500;10.176;2023-03-05T02:47:30;2.00;99.90
7030;DHT22;3556;53.500;10.176;2023-03-05T02:49:56;2.00;99.90
7030;DHT22;3556;53.500;10.176;2023-03-05T02:52:22;2.00;99.90
7030;DHT22;3556;53.500;10.176;2023-03-05T02:54:48;2.00;99.90
7030;DHT22;3556;53.500;10.176;2023-03-05T02:57:14;2.00;99.90
7030;DHT22;3556;53.500;10.176;2023-03-05T02:59:41;2.00;99.90
7030;DHT22;3556;53.500;10.176;2023-03-05T03:02:06;1.90;99.90
7030;DHT22;3556;53.500;10.176;2023-03-05T03:04:32;1.90;99.90
7030;DHT22;3556;53.500;10.176;2023-03-05T03:06:58;1.90;99.90
7030;DHT22;3556;53.500;10.176;2023-03-05T03:09:23;2.00;99.90
7030;DHT22;3556;53.500;10.176;2023-03-05T03:11:51;2.00;99.90
7030;DHT22;3556;53.500;10.176;2023-03-05T03:14:17;2.00;99.90
7030;DHT22;3556;53.500;10.176;2023-03-05T03:16:42;2.00;99.90
7030;DHT22;3556;53.500;10.176;2023-03-05T03:19:08;2.00;99.90
7030;DHT22;3556;53.500;10.176;2023-03-05T03:21:33;2.00;99.90
7030;DHT22;3556;53.500;10.176;2023-03-05T03:23:59;2.00;99.90
7030;DHT22;3556;53.500;10.176;2023-03-05T03:26:25;2.00;99.90
7030;DHT22;3556;53.500;10.176;2023-03-05T03:28:50;2.00;99.90
7030;DHT22;3556;53.500;10.176;2023-03-05T03:31:16;2.00;99.90
7030;DHT22;3556;53.500;10.176;2023-03-05T03:33:42;2.00;99.90
7030;DHT22;3556;53.500;10.176;2023-03-05T03:36:08;2.00;99.90
7030;DHT22;3556;53.500;10.176;2023-03-05T03:38:34;2.00;99.90
7030;DHT22;3556;53.500;10.176;2023-03-05T03:41:00;2.00;99.90
7030;DHT22;3556;53.500;10.176;2023-03-05T03:43:25;2.00;99.90
7030;DHT22;3556;53.500;10.176;2023-03-05T03:45:51;2.00;99.90
7030;DHT22;3556;53.500;10.176;2023-03-05T03:48:17;2.00;99.90
7030;DHT22;3556;53.500;10.176;2023-03-05T03:50:43;2.00;99.90
7030;DHT22;3556;53.500;10.176;2023-03-05T03:53:09;2.00;99.90
7030;DHT22;3556;53.500;10.176;2023-03-05T03:55:39;2.00;99.90
7030;DHT22;3556;53.500;10.176;2023-03-05T03:58:07;1.90;99.90
7030;DHT22;3556;53.500;10.176;2023-03-05T04:00:33;2.00;99.90
7030;DHT22;3556;53.500;10.176;2023-03-05T04:02:59;1.90;99.90
7030;DHT22;3556;53.500;10.176;2023-03-05T04:05:24;1.90;99.90
7030;DHT22;3556;53.500;10.176;2023-03-05T04:07:50;1.90;99.90
7030;DHT22;3556;53.500;10.176;2023-03-05T04:10:16;1.90;99.90
7030;DHT22;3556;53.500;10.176;2023-03-05T04:12:41;1.90;99.90
7030;DHT22;3556;53.500;10.176;2023-03-05T04:15:09;1.90;99.90
7030;DHT22;3556;53.500;10.176;2023-03-05T04:17:34;1.90;99.90
7030;DHT22;3556;53.500;10.176;2023-03-05T04:20:00;1.90;99.90
7030;DHT22;3556;53.500;10.176;2023-03-05T04:22:26;1.90;99.90
7030;DHT22;3556;53.500;10.176;2023-03-05T04:24:51;1.90;99.90
7030;DHT22;3556;53.500;10.176;2023-03-05T04:27:17;1.90;99.90
7030;DHT22;3556;53.500;10.176;2023-03-05T04:29:43;1.90;99.90
7030;DHT22;3556;53.500;10.176;2023-03-05T04:32:09;1.90;99.90
7030;DHT22;3556;53.500;10.176;2023-03-05T04:34:36;1.90;99.90
7030;DHT22;3556;53.500;10.176;2023-03-05T04:37:02;1.90;99.90
7030;DHT22;3556;53.500;10.176;2023-03-05T04:39:28;1.80;99.90
7030;DHT22;3556;53.500;10.176;2023-03-05T04:41:53;1.80;99.90
7030;DHT22;3556;53.500;10.176;2023-03-05T04:44:19;1.90;99.90
7030;DHT22;3556;53.500;10.176;2023-03-05T04:46:48;1.80;99.90
7030;DHT22;3556;53.500;10.176;2023-03-05T04:49:13;1.80;99.90
7030;DHT22;3556;53.500;10.176;2023-03-05T04:51:40;1.90;99.90
7030;DHT22;3556;53.500;10.176;2023-03-05T04:54:06;1.80;99.90
7030;DHT22;3556;53.500;10.176;2023-03-05T04:56:32;1.80;99.90
7030;DHT22;3556;53.500;10.176;2023-03-05T04:58:58;1.90;99.90
7030;DHT22;3556;53.500;10.176;2023-03-05T05:01:23;1.90;99.90
7030;DHT22;3556;53.500;10.176;2023-03-05T05:03:49;1.90;99.90
7030;DHT22;3556;53.500;10.176;2023-03-05T05:06:15;1.90;99.90
7030;DHT22;3556;53.500;10.176;2023-03-05T05:08:40;1.90;99.90
7030;DHT22;3556;53.500;10.176;2023-03-05T05:11:07;1.90;99.90
7030;DHT22;3556;53.500;10.176;2023-03-05T05:13:33;1.90;99.90
7030;DHT22;3556;53.500;10.176;2023-03-05T05:15:59;1.90;99.90
7030;DHT22;3556;53.500;10.176;2023-03-05T05:18:25;1.90;99.90
7030;DHT22;3556;53.500;10.176;2023-03-05T05:20:51;1.90;99.90
7030;DHT22;3556;53.500;10.176;2023-03-05T05:23:17;1.90;99.90
7030;DHT22;3556;53.500;10.176;2023-03-05T05:25:43;1.90;99.90
7030;DHT22;3556;53.500;10.176;2023-03-05T05:28:10;1.80;99.90
7030;DHT22;3556;53.500;10.176;2023-03-05T05:30:36;1.80;99.90
7030;DHT22;3556;53.500;10.176;2023-03-05T05:33:01;1.80;99.90
7030;DHT22;3556;53.500;10.176;2023-03-05T05:35:27;1.80;99.90
7030;DHT22;3556;53.500;10.176;2023-03-05T05:37:53;1.80;99.90
7030;DHT22;3556;53.500;10.176;2023-03-05T05:40:18;1.80;99.90
7030;DHT22;3556;53.500;10.176;2023-03-05T05:42:44;1.70;99.90
7030;DHT22;3556;53.500;10.176;2023-03-05T05:45:10;1.70;99.90
7030;DHT22;3556;53.500;10.176;2023-03-05T05:47:36;1.70;99.90
7030;DHT22;3556;53.500;10.176;2023-03-05T05:50:03;1.70;99.90
7030;DHT22;3556;53.500;10.176;2023-03-05T05:52:29;1.70;99.90
7030;DHT22;3556;53.500;10.176;2023-03-05T05:54:54;1.70;99.90
7030;DHT22;3556;53.500;10.176;2023-03-05T05:57:20;1.60;99.90
7030;DHT22;3556;53.500;10.176;2023-03-05T05:59:46;1.70;99.90
7030;DHT22;3556;53.500;10.176;2023-03-05T06:02:11;1.60;99.90
7030;DHT22;3556;53.500;10.176;2023-03-05T06:04:37;1.60;99.90
7030;DHT22;3556;53.500;10.176;2023-03-05T06:07:04;1.60;99.90
7030;DHT22;3556;53.500;10.176;2023-03-05T06:09:30;1.60;99.90
7030;DHT22;3556;53.500;10.176;2023-03-05T06:11:55;1.70;99.90
7030;DHT22;3556;53.500;10.176;2023-03-05T06:14:21;1.70;99.90
7030;DHT22;3556;53.500;10.176;2023-03-05T06:16:47;1.70;99.90
7030;DHT22;3556;53.500;10.176;2023-03-05T06:19:14;1.70;99.90
7030;DHT22;3556;53.500;10.176;2023-03-05T06:21:40;1.70;99.90
7030;DHT22;3556;53.500;10.176;2023-03-05T06:24:08;1.70;99.90
7030;DHT22;3556;53.500;10.176;2023-03-05T06:26:34;1.80;99.90
7030;DHT22;3556;53.500;10.176;2023-03-05T06:28:59;1.80;99.90
7030;DHT22;3556;53.500;10.176;2023-03-05T06:31:26;1.80;99.90
7030;DHT22;3556;53.500;10.176;2023-03-05T06:33:57;1.80;99.90
7030;DHT22;3556;53.500;10.176;2023-03-05T06:36:24;1.80;99.90
7030;DHT22;3556;53.500;10.176;2023-03-05T06:38:50;1.80;99.90
7030;DHT22;3556;53.500;10.176;2023-03-05T06:41:19;1.80;99.90
7030;DHT22;3556;53.500;10.176;2023-03-05T06:43:46;1.90;99.90
7030;DHT22;3556;53.500;10.176;2023-03-05T06:46:27;1.90;99.90
7030;DHT22;3556;53.500;10.176;2023-03-05T06:48:55;1.90;99.90
7030;DHT22;3556;53.500;10.176;2023-03-05T06:51:23;2.00;99.90
7030;DHT22;3556;53.500;10.176;2023-03-05T06:53:50;2.00;99.90
7030;DHT22;3556;53.500;10.176;2023-03-05T06:56:17;2.00;99.90
7030;DHT22;3556;53.500;10.176;2023-03-05T06:58:44;2.10;99.90
7030;DHT22;3556;53.500;10.176;2023-03-05T07:01:13;2.10;99.90
7030;DHT22;3556;53.500;10.176;2023-03-05T07:03:40;2.10;99.90
7030;DHT22;3556;53.500;10.176;2023-03-05T07:06:12;2.20;99.90
7030;DHT22;3556;53.500;10.176;2023-03-05T07:08:38;2.20;99.90
7030;DHT22;3556;53.500;10.176;2023-03-05T07:11:08;2.10;99.90
7030;DHT22;3556;53.500;10.176;2023-03-05T07:13:34;2.20;99.90
7030;DHT22;3556;53.500;10.176;2023-03-05T07:16:06;2.20;99.90
7030;DHT22;3556;53.500;10.176;2023-03-05T07:18:32;2.20;99.90
7030;DHT22;3556;53.500;10.176;2023-03-05T07:21:05;2.20;99.90
7030;DHT22;3556;53.500;10.176;2023-03-05T07:23:32;2.30;99.90
7030;DHT22;3556;53.500;10.176;2023-03-05T07:26:05;2.30;99.90
7030;DHT22;3556;53.500;10.176;2023-03-05T07:28:32;2.30;99.90
7030;DHT22;3556;53.500;10.176;2023-03-05T07:31:00;2.30;99.90
7030;DHT22;3556;53.500;10.176;2023-03-05T07:33:27;2.30;99.90
7030;DHT22;3556;53.500;10.176;2023-03-05T07:35:53;2.40;99.90
7030;DHT22;3556;53.500;10.176;2023-03-05T07:38:19;2.40;99.90
7030;DHT22;3556;53.500;10.176;2023-03-05T07:40:45;2.40;99.90
7030;DHT22;3556;53.500;10.176;2023-03-05T07:43:11;2.40;99.90
7030;DHT22;3556;53.500;10.176;2023-03-05T07:45:41;2.40;99.90
7030;DHT22;3556;53.500;10.176;2023-03-05T07:48:12;2.50;99.90
7030;DHT22;3556;53.500;10.176;2023-03-05T07:50:38;2.50;99.90
7030;DHT22;3556;53.500;10.176;2023-03-05T07:53:03;2.60;99.90
7030;DHT22;3556;53.500;10.176;2023-03-05T07:55:29;2.70;99.90
7030;DHT22;3556;53.500;10.176;2023-03-05T07:57:55;2.70;99.90
7030;DHT22;3556;53.500;10.176;2023-03-05T08:00:20;2.70;99.90
7030;DHT22;3556;53.500;10.176;2023-03-05T08:02:46;2.70;99.90
7030;DHT22;3556;53.500;10.176;2023-03-05T08:05:13;2.70;99.90
7030;DHT22;3556;53.500;10.176;2023-03-05T08:07:38;2.80;99.90
7030;DHT22;3556;53.500;10.176;2023-03-05T08:10:04;2.80;99.90
7030;DHT22;3556;53.500;10.176;2023-03-05T08:12:30;2.80;99.90
7030;DHT22;3556;53.500;10.176;2023-03-05T08:14:56;2.70;99.90
7030;DHT22;3556;53.500;10.176;2023-03-05T08:17:21;2.80;99.90
7030;DHT22;3556;53.500;10.176;2023-03-05T08:19:47;2.80;99.90
7030;DHT22;3556;53.500;10.176;2023-03-05T08:22:13;3.00;99.90
7030;DHT22;3556;53.500;10.176;2023-03-05T08:24:41;3.10;99.90
7030;DHT22;3556;53.500;10.176;2023-03-05T08:27:06;3.10;99.90
7030;DHT22;3556;53.500;10.176;2023-03-05T08:29:32;3.20;99.90
7030;DHT22;3556;53.500;10.176;2023-03-05T08:31:58;3.30;99.90
7030;DHT22;3556;53.500;10.176;2023-03-05T08:34:23;3.30;99.90
7030;DHT22;3556;53.500;10.176;2023-03-05T08:36:49;3.30;99.90
7030;DHT22;3556;53.500;10.176;2023-03-05T08:39:15;3.30;99.90
7030;DHT22;3556;53.500;10.176;2023-03-05T08:41:40;3.40;99.90
7030;DHT22;3556;53.500;10.176;2023-03-05T08:44:06;3.30;99.90
7030;DHT22;3556;53.500;10.176;2023-03-05T08:46:32;3.40;99.90
7030;DHT22;3556;53.500;10.176;2023-03-05T08:48:58;3.40;99.90
7030;DHT22;3556;53.500;10.176;2023-03-05T08:51:24;3.50;99.90
7030;DHT22;3556;53.500;10.176;2023-03-05T08:53:51;3.60;99.90
7030;DHT22;3556;53.500;10.176;2023-03-05T08:56:17;3.70;99.90
7030;DHT22;3556;53.500;10.176;2023-03-05T08:58:43;3.80;99.90
7030;DHT22;3556;53.500;10.176;2023-03-05T09:01:11;4.00;99.90
7030;DHT22;3556;53.500;10.176;2023-03-05T09:03:37;4.00;99.90
7030;DHT22;3556;53.500;10.176;2023-03-05T09:06:06;4.10;99.90
7030;DHT22;3556;53.500;10.176;2023-03-05T09:08:32;4.10;99.90
7030;DHT22;3556;53.500;10.176;2023-03-05T09:11:01;4.10;99.90
7030;DHT22;3556;53.500;10.176;2023-03-05T09:13:26;4.20;99.90
7030;DHT22;3556;53.500;10.176;2023-03-05T09:16:04;4.40;99.90
7030;DHT22;3556;53.500;10.176;2023-03-05T09:18:31;4.30;99.90
7030;DHT22;3556;53.500;10.176;2023-03-05T09:20:57;4.40;99.90
7030;DHT22;3556;53.500;10.176;2023-03-05T09:23:23;4.50;99.90
7030;DHT22;3556;53.500;10.176;2023-03-05T09:25:49;4.60;99.90
7030;DHT22;3556;53.500;10.176;2023-03-05T09:28:15;4.50;99.90
7030;DHT22;3556;53.500;10.176;2023-03-05T09:30:41;4.60;99.90
7030;DHT22;3556;53.500;10.176;2023-03-05T09:33:07;4.70;99.90
7030;DHT22;3556;53.500;10.176;2023-03-05T09:35:36;4.80;99.90
7030;DHT22;3556;53.500;10.176;2023-03-05T09:38:03;4.80;99.90
7030;DHT22;3556;53.500;10.176;2023-03-05T09:41:01;4.80;99.90
7030;DHT22;3556;53.500;10.176;2023-03-05T09:51:40;5.40;99.90
7030;DHT22;3556;53.500;10.176;2023-03-05T09:54:20;5.50;99.90
7030;DHT22;3556;53.500;10.176;2023-03-05T09:56:50;5.60;99.90
7030;DHT22;3556;53.500;10.176;2023-03-05T09:59:29;5.30;99.90
7030;DHT22;3556;53.500;10.176;2023-03-05T10:01:58;5.30;99.90
7030;DHT22;3556;53.500;10.176;2023-03-05T10:04:37;5.40;99.90
7030;DHT22;3556;53.500;10.176;2023-03-05T10:07:31;5.40;99.90
7030;DHT22;3556;53.500;10.176;2023-03-05T10:10:11;5.30;99.90
7030;DHT22;3556;53.500;10.176;2023-03-05T10:12:43;5.10;99.90
7030;DHT22;3556;53.500;10.176;2023-03-05T10:15:14;4.90;99.90
7030;DHT22;3556;53.500;10.176;2023-03-05T10:18:16;4.80;99.90
7030;DHT22;3556;53.500;10.176;2023-03-05T10:20:53;4.50;99.90
7030;DHT22;3556;53.500;10.176;2023-03-05T10:23:32;4.40;99.90
7030;DHT22;3556;53.500;10.176;2023-03-05T10:26:24;4.10;99.90
7030;DHT22;3556;53.500;10.176;2023-03-05T10:29:39;3.90;99.90
7030;DHT22;3556;53.500;10.176;2023-03-05T10:34:59;3.70;99.90
7030;DHT22;3556;53.500;10.176;2023-03-05T10:40:33;3.40;99.90
7030;DHT22;3556;53.500;10.176;2023-03-05T10:43:06;3.30;99.90
7030;DHT22;3556;53.500;10.176;2023-03-05T10:45:39;3.20;99.90
7030;DHT22;3556;53.500;10.176;2023-03-05T10:51:32;3.30;99.90
7030;DHT22;3556;53.500;10.176;2023-03-05T10:53:55;3.50;99.90
7030;DHT22;3556;53.500;10.176;2023-03-05T10:56:24;3.50;99.90
7030;DHT22;3556;53.500;10.176;2023-03-05T10:58:51;3.60;99.90
7030;DHT22;3556;53.500;10.176;2023-03-05T11:03:58;3.60;99.90
7030;DHT22;3556;53.500;10.176;2023-03-05T11:09:17;4.10;99.90
7030;DHT22;3556;53.500;10.176;2023-03-05T11:12:00;4.50;99.90
7030;DHT22;3556;53.500;10.176;2023-03-05T11:14:27;4.80;99.90
7030;DHT22;3556;53.500;10.176;2023-03-05T11:16:58;5.00;99.90
7030;DHT22;3556;53.500;10.176;2023-03-05T11:19:28;5.20;99.90
7030;DHT22;3556;53.500;10.176;2023-03-05T11:22:18;5.40;99.90
7030;DHT22;3556;53.500;10.176;2023-03-05T11:25:15;5.60;99.90
7030;DHT22;3556;53.500;10.176;2023-03-05T11:27:50;5.90;99.90
7030;DHT22;3556;53.500;10.176;2023-03-05T11:30:27;6.30;99.90
7030;DHT22;3556;53.500;10.176;2023-03-05T11:33:29;6.40;99.90
7030;DHT22;3556;53.500;10.176;2023-03-05T11:36:24;6.20;99.90
7030;DHT22;3556;53.500;10.176;2023-03-05T11:41:37;5.80;99.90
7030;DHT22;3556;53.500;10.176;2023-03-05T11:49:44;5.40;99.90
7030;DHT22;3556;53.500;10.176;2023-03-05T11:54:58;5.60;99.90
7030;DHT22;3556;53.500;10.176;2023-03-05T11:57:29;6.00;99.90
7030;DHT22;3556;53.500;10.176;2023-03-05T11:59:58;6.20;99.90
7030;DHT22;3556;53.500;10.176;2023-03-05T12:02:25;6.20;99.90
7030;DHT22;3556;53.500;10.176;2023-03-05T12:04:52;6.10;99.90
7030;DHT22;3556;53.500;10.176;2023-03-05T12:07:27;6.00;99.90
7030;DHT22;3556;53.500;10.176;2023-03-05T12:09:55;5.70;99.90
7030;DHT22;3556;53.500;10.176;2023-03-05T12:12:46;5.60;99.90
7030;DHT22;3556;53.500;10.176;2023-03-05T12:23:20;6.30;99.90
7030;DHT22;3556;53.500;10.176;2023-03-05T12:25:47;6.30;99.90
7030;DHT22;3556;53.500;10.176;2023-03-05T12:28:16;6.40;99.90
7030;DHT22;3556;53.500;10.176;2023-03-05T12:38:49;6.40;99.90
7030;DHT22;3556;53.500;10.176;2023-03-05T12:46:42;6.30;99.90
7030;DHT22;3556;53.500;10.176;2023-03-05T12:51:43;5.90;99.90
7030;DHT22;3556;53.500;10.176;2023-03-05T12:57:22;6.20;99.90
7030;DHT22;3556;53.500;10.176;2023-03-05T12:59:58;6.50;99.90
7030;DHT22;3556;53.500;10.176;2023-03-05T13:02:35;6.40;99.90
7030;DHT22;3556;53.500;10.176;2023-03-05T13:05:13;6.00;99.90
7030;DHT22;3556;53.500;10.176;2023-03-05T13:07:40;5.80;99.90
7030;DHT22;3556;53.500;10.176;2023-03-05T13:10:19;5.70;99.90
7030;DHT22;3556;53.500;10.176;2023-03-05T13:12:52;5.70;99.90
7030;DHT22;3556;53.500;10.176;2023-03-05T13:15:20;5.70;99.90
7030;DHT22;3556;53.500;10.176;2023-03-05T13:20:36;5.70;99.90
7030;DHT22;3556;53.500;10.176;2023-03-05T13:23:23;5.60;99.90
7030;DHT22;3556;53.500;10.176;2023-03-05T13:26:09;5.40;99.90
7030;DHT22;3556;53.500;10.176;2023-03-05T13:28:36;5.30;99.90
7030;DHT22;3556;53.500;10.176;2023-03-05T13:33:37;5.40;99.90
7030;DHT22;3556;53.500;10.176;2023-03-05T13:36:03;5.40;99.90
7030;DHT22;3556;53.500;10.176;2023-03-05T13:38:36;5.40;99.90
7030;DHT22;3556;53.500;10.176;2023-03-05T13:43:47;5.50;99.90
7030;DHT22;3556;53.500;10.176;2023-03-05T13:46:13;5.60;99.90
7030;DHT22;3556;53.500;10.176;2023-03-05T13:48:46;5.60;99.90
7030;DHT22;3556;53.500;10.176;2023-03-05T13:51:12;5.60;99.90
7030;DHT22;3556;53.500;10.176;2023-03-05T13:53:38;5.70;99.90
7030;DHT22;3556;53.500;10.176;2023-03-05T13:56:06;5.80;99.90
7030;DHT22;3556;53.500;10.176;2023-03-05T14:01:33;5.90;99.90
7030;DHT22;3556;53.500;10.176;2023-03-05T14:09:19;5.80;99.90
7030;DHT22;3556;53.500;10.176;2023-03-05T14:11:58;5.70;99.90
7030;DHT22;3556;53.500;10.176;2023-03-05T14:14:26;5.60;99.90
7030;DHT22;3556;53.500;10.176;2023-03-05T14:16:52;5.60;99.90
7030;DHT22;3556;53.500;10.176;2023-03-05T14:19:38;5.60;99.90
7030;DHT22;3556;53.500;10.176;2023-03-05T14:22:04;5.70;99.90
7030;DHT22;3556;53.500;10.176;2023-03-05T14:24:31;5.60;99.90
7030;DHT22;3556;53.500;10.176;2023-03-05T14:27:03;5.60;99.90
7030;DHT22;3556;53.500;10.176;2023-03-05T14:29:32;5.60;99.90
7030;DHT22;3556;53.500;10.176;2023-03-05T14:32:05;5.60;99.90
7030;DHT22;3556;53.500;10.176;2023-03-05T14:34:34;5.50;99.90
7030;DHT22;3556;53.500;10.176;2023-03-05T14:37:22;5.40;99.90
7030;DHT22;3556;53.500;10.176;2023-03-05T14:47:42;5.30;99.90
7030;DHT22;3556;53.500;10.176;2023-03-05T14:50:15;5.30;99.90
7030;DHT22;3556;53.500;10.176;2023-03-05T14:52:41;5.30;99.90
7030;DHT22;3556;53.500;10.176;2023-03-05T14:55:12;5.30;99.90
7030;DHT22;3556;53.500;10.176;2023-03-05T14:57:37;5.30;99.90
7030;DHT22;3556;53.500;10.176;2023-03-05T15:00:03;5.40;99.90
7030;DHT22;3556;53.500;10.176;2023-03-05T15:02:29;5.40;99.90
7030;DHT22;3556;53.500;10.176;2023-03-05T15:04:55;5.40;99.90
7030;DHT22;3556;53.500;10.176;2023-03-05T15:07:28;5.40;99.90
7030;DHT22;3556;53.500;10.176;2023-03-05T15:09:54;5.40;99.90
7030;DHT22;3556;53.500;10.176;2023-03-05T15:12:20;5.30;99.90
7030;DHT22;3556;53.500;10.176;2023-03-05T15:14:53;5.20;99.90
7030;DHT22;3556;53.500;10.176;2023-03-05T15:17:32;5.10;99.90
7030;DHT22;3556;53.500;10.176;2023-03-05T15:19:58;5.10;99.90
7030;DHT22;3556;53.500;10.176;2023-03-05T15:22:25;5.10;99.90
7030;DHT22;3556;53.500;10.176;2023-03-05T15:24:51;5.00;99.90
7030;DHT22;3556;53.500;10.176;2023-03-05T15:27:17;5.00;99.90
7030;DHT22;3556;53.500;10.176;2023-03-05T15:29:43;5.00;99.90
7030;DHT22;3556;53.500;10.176;2023-03-05T15:32:08;4.90;99.90
7030;DHT22;3556;53.500;10.176;2023-03-05T15:34:34;4.90;99.90
7030;DHT22;3556;53.500;10.176;2023-03-05T15:37:01;4.90;99.90
7030;DHT22;3556;53.500;10.176;2023-03-05T15:39:27;4.80;99.90
7030;DHT22;3556;53.500;10.176;2023-03-05T15:41:53;4.70;99.90
7030;DHT22;3556;53.500;10.176;2023-03-05T15:44:19;4.60;99.90
7030;DHT22;3556;53.500;10.176;2023-03-05T15:46:45;4.60;99.90
7030;DHT22;3556;53.500;10.176;2023-03-05T15:49:11;4.60;99.90
7030;DHT22;3556;53.500;10.176;2023-03-05T15:51:36;4.50;99.90
7030;DHT22;3556;53.500;10.176;2023-03-05T15:54:02;4.40;99.90
7030;DHT22;3556;53.500;10.176;2023-03-05T15:56:28;4.30;99.90
7030;DHT22;3556;53.500;10.176;2023-03-05T15:58:53;4.30;99.90
7030;DHT22;3556;53.500;10.176;2023-03-05T16:01:19;4.30;99.90
7030;DHT22;3556;53.500;10.176;2023-03-05T16:03:45;4.30;99.90
7030;DHT22;3556;53.500;10.176;2023-03-05T16:06:13;4.20;99.90
7030;DHT22;3556;53.500;10.176;2023-03-05T16:08:41;4.20;99.90
7030;DHT22;3556;53.500;10.176;2023-03-05T16:11:08;4.20;99.90
7030;DHT22;3556;53.500;10.176;2023-03-05T16:13:34;4.10;99.90
7030;DHT22;3556;53.500;10.176;2023-03-05T16:16:02;4.10;99.90
7030;DHT22;3556;53.500;10.176;2023-03-05T16:18:29;4.10;99.90
7030;DHT22;3556;53.500;10.176;2023-03-05T16:20:56;4.10;99.90
7030;DHT22;3556;53.500;10.176;2023-03-05T16:23:21;4.00;99.90
7030;DHT22;3556;53.500;10.176;2023-03-05T16:25:47;4.00;99.90
7030;DHT22;3556;53.500;10.176;2023-03-05T16:28:13;3.90;99.90
7030;DHT22;3556;53.500;10.176;2023-03-05T16:30:38;3.90;99.90
7030;DHT22;3556;53.500;10.176;2023-03-05T16:33:04;3.90;99.90
7030;DHT22;3556;53.500;10.176;2023-03-05T16:35:30;3.90;99.90
7030;DHT22;3556;53.500;10.176;2023-03-05T16:37:56;3.80;99.90
7030;DHT22;3556;53.500;10.176;2023-03-05T16:40:21;3.80;99.90
7030;DHT22;3556;53.500;10.176;2023-03-05T16:42:47;3.80;99.90
7030;DHT22;3556;53.500;10.176;2023-03-05T16:45:13;3.70;99.90
7030;DHT22;3556;53.500;10.176;2023-03-05T16:47:39;3.70;99.90
7030;DHT22;3556;53.500;10.176;2023-03-05T16:50:05;3.60;99.90
7030;DHT22;3556;53.500;10.176;2023-03-05T16:52:32;3.60;99.90
7030;DHT22;3556;53.500;10.176;2023-03-05T16:54:58;3.60;99.90
7030;DHT22;3556;53.500;10.176;2023-03-05T16:57:23;3.50;99.90
7030;DHT22;3556;53.500;10.176;2023-03-05T16:59:50;3.50;99.90
7030;DHT22;3556;53.500;10.176;2023-03-05T17:02:16;3.40;99.90
7030;DHT22;3556;53.500;10.176;2023-03-05T17:04:43;3.40;99.90
7030;DHT22;3556;53.500;10.176;2023-03-05T17:07:09;3.30;99.90
7030;DHT22;3556;53.500;10.176;2023-03-05T17:09:35;3.30;99.90
7030;DHT22;3556;53.500;10.176;2023-03-05T17:12:00;3.30;99.90
7030;DHT22;3556;53.500;10.176;2023-03-05T17:14:26;3.30;99.90
7030;DHT22;3556;53.500;10.176;2023-03-05T17:16:52;3.30;99.90
7030;DHT22;3556;53.500;10.176;2023-03-05T17:19:18;3.30;99.90
7030;DHT22;3556;53.500;10.176;2023-03-05T17:21:44;3.20;99.90
7030;DHT22;3556;53.500;10.176;2023-03-05T17:24:09;3.10;99.90
7030;DHT22;3556;53.500;10.176;2023-03-05T17:26:35;3.10;99.90
7030;DHT22;3556;53.500;10.176;2023-03-05T17:29:05;3.00;99.90
7030;DHT22;3556;53.500;10.176;2023-03-05T17:31:31;3.00;99.90
7030;DHT22;3556;53.500;10.176;2023-03-05T17:33:57;2.90;99.90